Archival Weather

Fayette Rgnl Air Cntr Arp

Fayette Rgnl Air Cntr Arp, Texas (K3T5)

Report from: Thursday, September 22, 2022 2:35 AM CDT
Current time: Friday, February 3, 2023 11:20 PM CST

Current weather
Weather history
Weather forecast

Temperature22.2°C (72.0°F)
Dew point21.2°C (70.2°F)
Winds Calm
Visibility10 mi. (16.1 km)
Clouds Sky clear
Altimeter29.98 in.Hg (1015 mB)
Relative humidity94 %
Density altitude1,111 ft. (339 m)
Remarks Fully automated report
Automated weather observing station with precipitation discriminator
Flight conditions Visual Meteorological Conditions
Raw dataK3T5 220735Z AUTO 00000KT 10SM CLR 22/21 A2998 RMK AO2 T02220212
An unhandled exception has occurred. See browser dev tools for details. Reload 🗙